Time;durP1;ratioP1;P1;durP2;ratioP2;P2;SDS_P1;SDS_P2;PMS_P1;PMS_P2;Temp;Humidity;BMP_temperature;BMP_pressure;BME280_temperature;BME280_humidity;BME280_pressure;Samples;Min_cycle;Max_cycle;Signal;HPM_P1;HPM_P2
2023/08/26 00:01:04;;;;;;;9.90;7.38;;;;;;;-141.97;48.24;47567.13;5036888;28;20198;-84
2023/08/26 00:03:29;;;;;;;10.65;7.20;;;;;;;-141.97;48.38;47238.47;5037963;28;20171;-85
2023/08/26 00:05:54;;;;;;;11.20;7.30;;;;;;;-141.97;48.41;47367.25;5038319;28;20182;-84
2023/08/26 00:08:20;;;;;;;11.38;7.32;;;;;;;-141.97;48.19;47319.19;5038854;28;20556;-84
2023/08/26 00:10:45;;;;;;;14.02;7.60;;;;;;;-141.97;48.35;47278.84;5035527;28;20206;-84
2023/08/26 00:13:11;;;;;;;11.80;7.70;;;;;;;-141.97;48.15;47175.06;5035128;28;20166;-84
2023/08/26 00:15:37;;;;;;;11.45;7.72;;;;;;;-141.97;48.52;47515.22;5034791;28;20294;-85
2023/08/26 00:18:03;;;;;;;11.52;7.70;;;;;;;-141.97;48.55;47344.19;5034761;28;20190;-85
2023/08/26 00:20:29;;;;;;;10.77;8.25;;;;;;;-141.97;48.37;47369.16;5032563;28;20167;-85
2023/08/26 00:22:54;;;;;;;9.80;7.95;;;;;;;-141.97;48.50;47592.13;5035549;28;20206;-85
2023/08/26 00:25:20;;;;;;;10.68;7.80;;;;;;;-141.97;48.50;47384.53;5031960;28;20249;-86
2023/08/26 00:27:45;;;;;;;12.07;7.50;;;;;;;-141.97;48.42;47384.53;5032908;28;20263;-86
2023/08/26 00:30:11;;;;;;;11.15;8.27;;;;;;;-141.97;48.53;47211.56;5034023;28;20308;-85
2023/08/26 00:32:36;;;;;;;11.65;8.38;;;;;;;-141.97;49.04;47459.50;5034340;28;20186;-85
2023/08/26 00:35:02;;;;;;;11.30;8.05;;;;;;;-141.97;48.47;47321.13;5033702;28;20599;-85
2023/08/26 00:37:27;;;;;;;11.93;8.57;;;;;;;-141.97;48.67;47365.31;5033834;28;20182;-85
2023/08/26 00:39:52;;;;;;;12.90;8.40;;;;;;;-141.97;48.76;47251.94;5034067;28;20668;-85
2023/08/26 00:42:18;;;;;;;10.23;8.50;;;;;;;-141.97;48.32;47317.28;5033675;28;20315;-85
2023/08/26 00:44:43;;;;;;;9.57;8.35;;;;;;;-141.97;48.61;47161.59;5032224;28;20170;-85
2023/08/26 00:47:09;;;;;;;12.23;8.38;;;;;;;-141.97;48.82;47344.19;5033576;28;20290;-84
2023/08/26 00:49:35;;;;;;;14.90;8.80;;;;;;;-141.97;48.84;47430.66;5032634;28;20186;-85
2023/08/26 00:52:00;;;;;;;12.23;9.20;;;;;;;-141.97;49.03;47299.97;5031399;28;20178;-85
2023/08/26 00:54:27;;;;;;;11.45;8.70;;;;;;;-141.97;48.73;47201.97;5034414;28;20180;-85
2023/08/26 00:56:54;;;;;;;14.07;8.68;;;;;;;-141.97;48.79;47415.28;5034278;28;20153;-85
2023/08/26 00:59:19;;;;;;;11.65;8.60;;;;;;;-141.97;48.72;47296.13;5033310;28;20176;-85
2023/08/26 01:01:46;;;;;;;10.13;8.23;;;;;;;-141.97;48.67;47619.03;5033719;28;20604;-85
2023/08/26 01:04:11;;;;;;;10.52;8.45;;;;;;;-141.97;48.46;47351.88;5034029;28;20185;-85
2023/08/26 01:06:37;;;;;;;11.98;7.93;;;;;;;-141.97;48.44;47349.94;5053714;28;20181;-85
2023/08/26 01:09:03;;;;;;;10.00;7.90;;;;;;;-141.97;48.15;47323.03;5053520;28;20168;-85
2023/08/26 01:11:36;;;;;;;10.25;7.75;;;;;;;-141.97;48.73;47365.31;5051229;28;20176;-84
2023/08/26 01:14:16;;;;;;;10.30;8.20;;;;;;;-141.97;48.30;47255.78;5046130;28;20684;-85
2023/08/26 01:16:42;;;;;;;9.48;7.80;;;;;;;-141.97;48.67;47396.06;5033330;28;20164;-85
2023/08/26 01:19:21;;;;;;;12.70;8.00;;;;;;;-141.97;49.28;47357.63;5033162;28;20245;-85
2023/08/26 01:21:49;;;;;;;11.55;8.35;;;;;;;-141.97;49.23;47369.16;5032833;28;20172;-85
2023/08/26 01:24:15;;;;;;;12.63;7.85;;;;;;;-141.97;48.93;47307.66;5032673;28;20226;-85
2023/08/26 01:26:40;;;;;;;9.52;7.25;;;;;;;-141.97;48.97;47315.34;5029293;28;20194;-84
2023/08/26 01:29:07;;;;;;;12.18;7.70;;;;;;;-141.97;48.82;47211.56;5032378;28;20158;-85
2023/08/26 01:31:34;;;;;;;8.80;7.40;;;;;;;-141.97;48.36;47173.13;5032557;28;20174;-85
2023/08/26 01:34:24;;;;;;;10.23;7.80;;;;;;;-141.97;48.22;47340.34;5032223;28;20245;-84
2023/08/26 01:36:51;;;;;;;11.17;7.40;;;;;;;-141.97;48.50;47378.78;5032342;28;20534;-85
2023/08/26 01:39:17;;;;;;;9.40;7.30;;;;;;;-141.97;48.55;47338.41;5032660;28;20253;-86
2023/08/26 01:41:50;;;;;;;12.38;7.55;;;;;;;-141.97;48.68;47288.44;5032217;28;20214;-84
2023/08/26 01:44:17;;;;;;;9.87;7.30;;;;;;;-141.97;48.46;47426.81;5032256;28;20216;-85
2023/08/26 01:46:44;;;;;;;12.10;7.68;;;;;;;-141.97;48.50;47388.38;5032755;28;20189;-87
2023/08/26 01:49:10;;;;;;;9.80;7.60;;;;;;;-141.97;48.02;47225.03;5032862;28;20383;-86
2023/08/26 01:51:35;;;;;;;8.88;6.85;;;;;;;-141.97;47.89;47123.16;5032394;28;20311;-84
2023/08/26 01:54:01;;;;;;;8.90;6.87;;;;;;;-141.97;47.58;47624.78;5032465;28;20162;-85
2023/08/26 01:56:26;;;;;;;9.73;6.70;;;;;;;-141.97;48.15;47365.31;5031932;28;20547;-85
2023/08/26 01:58:52;;;;;;;8.17;6.40;;;;;;;-141.97;47.53;47096.25;5032074;28;20166;-85
2023/08/26 02:01:17;;;;;;;10.87;7.17;;;;;;;-141.97;47.68;47315.34;5025748;28;20170;-84
2023/08/26 02:03:42;;;;;;;9.60;6.73;;;;;;;-141.97;47.47;47363.41;5031243;28;20181;-84
2023/08/26 02:06:08;;;;;;;9.73;6.70;;;;;;;-141.97;47.87;47386.47;5030543;28;20891;-84
2023/08/26 02:08:33;;;;;;;9.60;6.77;;;;;;;-141.97;47.72;47365.31;5031735;28;20203;-84
2023/08/26 02:10:59;;;;;;;8.50;6.57;;;;;;;-141.97;47.95;47396.06;5032012;28;20158;-85
2023/08/26 02:13:25;;;;;;;10.27;6.50;;;;;;;-141.97;48.04;47311.50;5031631;28;20670;-85
2023/08/26 02:15:50;;;;;;;9.50;6.50;;;;;;;-141.97;48.24;47346.09;5030777;28;20178;-84
2023/08/26 02:18:16;;;;;;;10.47;6.73;;;;;;;-141.97;48.38;47102.03;5030687;28;20594;-84
2023/08/26 02:20:45;;;;;;;10.73;6.20;;;;;;;-141.97;48.41;47576.75;5030577;28;20569;-83
2023/08/26 02:23:10;;;;;;;9.60;7.00;;;;;;;-141.97;48.52;47357.63;5032724;28;20173;-84
2023/08/26 02:25:38;;;;;;;8.97;6.80;;;;;;;-141.97;48.33;47390.31;5055197;28;20158;-84
2023/08/26 02:28:03;;;;;;;8.17;6.70;;;;;;;-141.97;48.47;47311.50;5056535;28;20193;-83
2023/08/26 02:30:29;;;;;;;10.97;7.07;;;;;;;-141.97;48.69;47374.94;5041812;28;20170;-85
2023/08/26 02:32:54;;;;;;;11.50;7.00;;;;;;;-141.97;48.72;47369.16;5030456;28;20174;-82
2023/08/26 02:35:20;;;;;;;9.37;6.77;;;;;;;-141.97;48.81;47409.53;5031582;28;20181;-82
2023/08/26 02:37:45;;;;;;;11.40;6.90;;;;;;;-141.97;49.03;47378.78;5031990;28;20162;-82
2023/08/26 02:40:10;;;;;;;9.03;6.50;;;;;;;-141.97;49.17;47365.31;5031762;28;20245;-82
2023/08/26 02:42:36;;;;;;;11.43;6.60;;;;;;;-141.97;49.46;47371.09;5031650;28;20233;-84
2023/08/26 02:45:01;;;;;;;8.50;6.37;;;;;;;-141.97;48.97;47367.25;5031508;28;20642;-83
2023/08/26 02:47:26;;;;;;;9.57;6.97;;;;;;;-141.97;49.14;47380.69;5031234;28;20185;-83
2023/08/26 02:49:52;;;;;;;7.97;6.47;;;;;;;-141.97;49.33;47411.44;5031314;28;20265;-83
2023/08/26 02:52:17;;;;;;;9.70;6.37;;;;;;;-141.97;49.19;47386.47;5031787;28;20166;-82
2023/08/26 02:54:43;;;;;;;10.07;6.63;;;;;;;-141.97;49.68;47405.69;5031614;28;20570;-82
2023/08/26 02:57:08;;;;;;;12.57;7.00;;;;;;;-141.97;49.78;47422.97;5031700;28;20196;-82
2023/08/26 02:59:33;;;;;;;7.83;6.83;;;;;;;-141.97;49.55;47582.50;5031079;28;20182;-83
2023/08/26 03:02:04;;;;;;;8.47;7.10;;;;;;;-141.97;49.84;47388.38;5027427;28;20184;-83
2023/08/26 03:04:30;;;;;;;11.03;6.73;;;;;;;-141.97;49.86;47409.53;5030000;28;20177;-83
2023/08/26 03:06:56;;;;;;;11.27;6.90;;;;;;;-141.97;49.94;47378.78;5030598;28;20252;-83
2023/08/26 03:09:21;;;;;;;10.20;6.73;;;;;;;-141.97;50.20;47394.16;5030590;28;20166;-82
2023/08/26 03:11:47;;;;;;;11.17;6.70;;;;;;;-141.97;50.43;47386.47;5030703;28;20166;-83
2023/08/26 03:14:12;;;;;;;10.33;7.10;;;;;;;-141.97;50.33;47394.16;5048404;28;20173;-86
2023/08/26 03:16:39;;;;;;;13.77;7.43;;;;;;;-141.97;50.48;47369.16;5048467;28;20247;-85
2023/08/26 03:19:05;;;;;;;11.60;7.00;;;;;;;-141.97;50.49;47447.97;5048497;28;20196;-87
2023/08/26 03:21:31;;;;;;;9.40;6.77;;;;;;;-141.97;50.53;47288.44;5044499;28;20178;-85
2023/08/26 03:23:57;;;;;;;15.30;7.17;;;;;;;-141.97;50.68;47259.63;5030564;28;20169;-85
2023/08/26 03:26:23;;;;;;;12.57;6.70;;;;;;;-141.97;50.65;47401.84;5029464;28;20653;-86
2023/08/26 03:28:48;;;;;;;12.27;8.13;;;;;;;-141.97;51.32;47365.31;5015873;28;20241;-86
2023/08/26 03:31:14;;;;;;;9.73;7.90;;;;;;;-141.97;51.37;47380.69;5011020;28;20369;-83
2023/08/26 03:33:40;;;;;;;12.47;7.90;;;;;;;-141.97;51.23;47211.56;5009009;28;20205;-83
2023/08/26 03:36:06;;;;;;;17.67;8.83;;;;;;;-141.97;51.79;47349.94;5029970;28;20185;-84
2023/08/26 03:38:32;;;;;;;15.23;8.90;;;;;;;-141.97;52.15;47094.34;5030820;28;20158;-84
2023/08/26 03:40:57;;;;;;;14.33;8.63;;;;;;;-141.97;52.60;47601.72;5030399;28;20885;-84
2023/08/26 03:43:23;;;;;;;13.63;8.53;;;;;;;-141.97;52.47;47574.81;5029421;28;20170;-84
2023/08/26 03:45:48;;;;;;;13.90;8.53;;;;;;;-141.97;52.86;47236.56;5030936;28;20181;-84
2023/08/26 03:48:14;;;;;;;16.60;8.53;;;;;;;-141.97;52.78;47246.16;5030231;28;20193;-84
2023/08/26 03:50:52;;;;;;;12.17;8.90;;;;;;;-141.97;52.90;47390.31;5031588;28;21177;-85
2023/08/26 03:53:18;;;;;;;13.97;8.30;;;;;;;-141.97;54.11;47447.97;5031315;28;20178;-86
2023/08/26 03:55:44;;;;;;;11.13;7.93;;;;;;;-141.97;54.36;47267.31;5030251;28;20185;-86
2023/08/26 03:58:10;;;;;;;13.17;8.60;;;;;;;-141.97;54.44;47376.84;5029380;28;20185;-85
2023/08/26 04:00:36;;;;;;;11.10;8.63;;;;;;;-141.97;54.42;47415.28;5029785;28;20198;-85
2023/08/26 04:03:01;;;;;;;14.50;9.27;;;;;;;-141.97;55.06;47419.13;5027243;28;20743;-86
2023/08/26 04:05:27;;;;;;;17.63;8.80;;;;;;;-141.97;54.87;47519.06;5028218;28;20408;-85
2023/08/26 04:07:52;;;;;;;13.77;8.63;;;;;;;-141.97;54.97;47238.47;5028793;28;20238;-84
2023/08/26 04:10:18;;;;;;;15.00;9.60;;;;;;;-141.97;55.85;47497.94;5030533;28;20150;-85
2023/08/26 04:12:43;;;;;;;16.33;8.90;;;;;;;-141.97;56.98;47422.97;5029045;28;20170;-86
2023/08/26 04:15:11;;;;;;;13.83;10.10;;;;;;;-141.97;57.06;47298.06;5029083;28;20340;-87
2023/08/26 04:17:37;;;;;;;15.17;9.17;;;;;;;-141.97;57.43;47480.63;5028484;28;20197;-85
2023/08/26 04:20:02;;;;;;;17.70;9.77;;;;;;;-141.97;57.82;47653.63;5029362;28;20259;-84
2023/08/26 04:22:28;;;;;;;13.10;9.83;;;;;;;-141.97;57.77;47280.75;5028220;28;20172;-85
2023/08/26 04:24:53;;;;;;;16.70;10.20;;;;;;;-141.97;57.35;47446.03;5032017;28;20182;-85
2023/08/26 04:27:19;;;;;;;15.83;11.80;;;;;;;-141.97;57.55;47403.75;5022241;28;20639;-86
2023/08/26 04:29:44;;;;;;;15.17;10.70;;;;;;;-141.97;57.66;47253.84;5032959;28;20174;-84
2023/08/26 04:32:10;;;;;;;14.80;11.10;;;;;;;-141.97;57.86;47611.34;5030356;28;20192;-84
2023/08/26 04:34:35;;;;;;;17.53;11.70;;;;;;;-141.97;57.58;47203.88;5033216;28;20182;-84
2023/08/26 04:37:01;;;;;;;16.10;12.27;;;;;;;-141.97;57.82;47426.81;5033193;28;20169;-84
2023/08/26 04:39:26;;;;;;;16.63;12.40;;;;;;;-141.97;58.53;47701.69;5031699;28;20716;-84
2023/08/26 04:41:54;;;;;;;18.53;13.50;;;;;;;-141.97;58.51;47609.41;5032292;28;20268;-85
2023/08/26 04:44:19;;;;;;;20.53;13.50;;;;;;;-141.97;58.04;47323.03;5033395;28;20185;-85
2023/08/26 04:46:45;;;;;;;20.30;13.27;;;;;;;-141.97;58.02;47426.81;5033668;28;20190;-85
2023/08/26 04:49:11;;;;;;;20.13;13.70;;;;;;;-141.97;57.74;47407.59;5032490;28;20178;-84
2023/08/26 04:51:38;;;;;;;20.30;13.57;;;;;;;-141.97;57.58;47409.53;5034824;28;20158;-84
2023/08/26 04:54:04;;;;;;;20.77;14.30;;;;;;;-141.97;58.61;47422.97;5050073;28;20213;-85
2023/08/26 04:56:30;;;;;;;21.93;15.77;;;;;;;-141.97;59.14;47338.41;5034046;28;20247;-84
2023/08/26 04:58:56;;;;;;;19.77;15.27;;;;;;;-141.97;58.80;47096.25;5028664;28;20666;-84
2023/08/26 05:01:21;;;;;;;21.13;15.33;;;;;;;-141.97;58.59;47419.13;5035305;28;20641;-84
2023/08/26 05:03:46;;;;;;;21.63;16.30;;;;;;;-141.97;59.80;47422.97;5034348;28;20170;-84
2023/08/26 05:06:12;;;;;;;23.13;16.07;;;;;;;-141.97;60.09;47507.53;5035429;28;20257;-83
2023/08/26 05:08:37;;;;;;;20.90;16.03;;;;;;;-141.97;60.41;47392.22;5051703;28;20198;-83
2023/08/26 05:11:05;;;;;;;22.60;16.30;;;;;;;-141.97;60.73;47426.81;5056643;28;20253;-84
2023/08/26 05:13:30;;;;;;;21.77;16.00;;;;;;;-141.97;60.06;47384.53;5057447;28;20181;-84
2023/08/26 05:15:56;;;;;;;24.83;15.40;;;;;;;-141.97;59.13;47449.88;5062560;28;20736;-83
2023/08/26 05:18:21;;;;;;;20.23;15.27;;;;;;;-141.97;58.06;47413.38;5037187;28;20261;-83
2023/08/26 05:20:47;;;;;;;19.63;14.90;;;;;;;-141.97;57.64;47351.88;5046794;28;20192;-81
2023/08/26 05:23:14;;;;;;;23.57;15.43;;;;;;;-141.97;57.61;47422.97;5056312;28;20174;-83
2023/08/26 05:25:43;;;;;;;23.57;15.60;;;;;;;-141.97;57.67;47401.84;5054948;28;20166;-85
2023/08/26 05:28:09;;;;;;;20.57;14.37;;;;;;;-141.97;56.86;47384.53;5050660;28;20213;-84
2023/08/26 05:30:37;;;;;;;20.70;14.80;;;;;;;-141.97;56.16;47401.84;5035856;28;20154;-84
2023/08/26 05:33:02;;;;;;;21.50;15.00;;;;;;;-141.97;56.02;47209.66;5032546;28;20166;-82
2023/08/26 05:35:28;;;;;;;21.80;15.10;;;;;;;-141.97;56.13;47546.00;5030445;28;20224;-83
2023/08/26 05:37:53;;;;;;;20.27;14.70;;;;;;;-141.97;56.94;47401.84;5032514;28;20169;-83
2023/08/26 05:40:26;;;;;;;22.73;14.87;;;;;;;-141.97;56.49;47436.44;5032591;28;20176;-83
2023/08/26 05:42:51;;;;;;;22.13;14.57;;;;;;;-141.97;55.81;47346.09;5032395;28;20178;-82
2023/08/26 05:45:17;;;;;;;21.03;15.37;;;;;;;-141.97;56.30;47315.34;5032411;28;20622;-83
2023/08/26 05:47:42;;;;;;;21.33;15.13;;;;;;;-141.97;56.28;47417.22;5032152;28;20196;-83
2023/08/26 05:50:08;;;;;;;21.70;15.07;;;;;;;-141.97;55.72;47455.66;5032031;28;20170;-82
2023/08/26 05:52:35;;;;;;;22.50;15.80;;;;;;;-141.97;55.40;47457.56;5032129;28;20733;-82
2023/08/26 05:55:00;;;;;;;24.27;15.47;;;;;;;-141.97;55.21;47250.00;5032636;28;20193;-83
2023/08/26 05:57:25;;;;;;;22.37;15.40;;;;;;;-141.97;54.91;47651.69;5032787;28;20582;-83
2023/08/26 05:59:51;;;;;;;22.07;14.73;;;;;;;-141.97;54.19;47290.38;5032208;28;20162;-76
2023/08/26 06:02:16;;;;;;;22.33;14.70;;;;;;;-141.97;55.92;47424.91;5031864;28;20611;-76
2023/08/26 06:04:41;;;;;;;26.23;15.33;;;;;;;-141.97;54.74;47371.09;5034756;28;20600;-75
2023/08/26 06:07:07;;;;;;;19.67;14.33;;;;;;;-141.97;54.37;47390.31;5030800;28;20222;-76
2023/08/26 06:09:32;;;;;;;20.53;13.40;;;;;;;-141.97;54.05;47390.31;5030677;28;20248;-74
2023/08/26 06:11:57;;;;;;;18.67;13.80;;;;;;;-141.97;53.44;47644.00;5030964;28;20162;-75
2023/08/26 06:14:23;;;;;;;20.40;13.50;;;;;;;-141.97;53.00;47394.16;5030354;28;20804;-76
2023/08/26 06:16:49;;;;;;;19.77;13.18;;;;;;;-141.97;51.93;47390.31;5030857;28;20245;-75
2023/08/26 06:19:14;;;;;;;18.77;13.80;;;;;;;-141.97;51.86;47392.22;5030731;28;20159;-75
2023/08/26 06:21:39;;;;;;;21.00;13.30;;;;;;;-141.97;51.18;47392.22;5030646;28;20649;-75
2023/08/26 06:24:05;;;;;;;20.77;13.02;;;;;;;-141.97;50.65;47398.00;5028429;28;20547;-75
2023/08/26 06:26:31;;;;;;;16.23;12.63;;;;;;;-141.97;50.51;47384.53;5030161;28;20181;-75
2023/08/26 06:28:56;;;;;;;19.45;12.60;;;;;;;-141.97;50.63;47426.81;5031005;28;20194;-75
2023/08/26 06:31:21;;;;;;;19.42;12.15;;;;;;;-141.97;50.06;47363.41;5030626;28;20236;-75
2023/08/26 06:33:47;;;;;;;17.95;12.43;;;;;;;-141.97;49.61;47373.00;5030648;28;20239;-76
2023/08/26 06:36:12;;;;;;;16.85;11.27;;;;;;;-141.97;49.14;47367.25;5030702;28;20544;-75
2023/08/26 06:38:37;;;;;;;15.88;11.45;;;;;;;-141.97;48.11;47384.53;5026400;28;20566;-75
2023/08/26 06:41:08;;;;;;;18.98;11.38;;;;;;;-141.97;49.25;47386.47;5029910;28;20337;-79
2023/08/26 06:43:34;;;;;;;14.43;10.63;;;;;;;-141.97;48.53;47384.53;5029908;28;20180;-75
2023/08/26 06:45:59;;;;;;;15.23;11.60;;;;;;;-141.97;48.61;47373.00;5030242;28;20154;-77
2023/08/26 06:48:25;;;;;;;16.10;10.85;;;;;;;-141.97;48.76;47396.06;5028667;28;20249;-76
2023/08/26 06:50:51;;;;;;;12.63;10.18;;;;;;;-141.97;47.57;47349.94;5030000;28;20161;-76
2023/08/26 06:53:21;;;;;;;13.80;9.95;;;;;;;-141.97;47.48;47401.84;5030029;28;20221;-76
2023/08/26 06:55:51;;;;;;;16.17;10.90;;;;;;;-141.97;47.36;47357.63;5029822;28;20170;-76
2023/08/26 06:58:17;;;;;;;14.13;11.70;;;;;;;-141.97;46.20;47380.69;5029839;28;20175;-77
2023/08/26 07:00:42;;;;;;;14.35;10.82;;;;;;;-141.97;44.97;47349.94;5029077;28;20168;-78
2023/08/26 07:03:09;;;;;;;15.75;11.20;;;;;;;-141.97;44.74;47365.31;5024860;28;20747;-78
2023/08/26 07:05:35;;;;;;;18.92;10.88;;;;;;;-141.97;44.97;47349.94;5049636;28;20228;-77
2023/08/26 07:08:02;;;;;;;13.70;11.00;;;;;;;-141.97;44.19;47357.63;5049486;28;20204;-78
2023/08/26 07:10:27;;;;;;;12.73;10.40;;;;;;;-141.97;43.52;47338.41;5032454;28;20237;-78
2023/08/26 07:12:52;;;;;;;12.95;10.30;;;;;;;-141.97;43.44;47342.25;5030051;28;20252;-79
2023/08/26 07:15:18;;;;;;;13.45;10.85;;;;;;;-141.97;43.71;47321.13;5030025;28;20248;-79
2023/08/26 07:17:44;;;;;;;14.05;10.65;;;;;;;-141.97;43.47;47261.53;5029761;28;20196;-80
2023/08/26 07:20:10;;;;;;;13.38;9.93;;;;;;;-141.97;42.71;47315.34;5029813;28;20187;-76
2023/08/26 07:22:36;;;;;;;12.40;10.55;;;;;;;-141.97;42.32;47250.00;5029866;28;20177;-77
2023/08/26 07:25:02;;;;;;;14.88;10.45;;;;;;;-141.97;43.97;47294.22;5030487;28;20244;-78
2023/08/26 07:27:27;;;;;;;12.30;11.00;;;;;;;-141.97;42.83;47357.63;5030736;28;20290;-78
2023/08/26 07:29:53;;;;;;;15.00;10.98;;;;;;;-141.97;42.88;47348.03;5030672;28;20181;-77
2023/08/26 07:32:19;;;;;;;13.10;10.60;;;;;;;-141.97;42.57;47321.13;5030899;28;20222;-80
2023/08/26 07:34:44;;;;;;;13.90;10.73;;;;;;;-141.97;41.65;47324.97;5035643;28;20158;-79
2023/08/26 07:37:10;;;;;;;13.32;11.68;;;;;;;-141.97;41.10;47276.91;5028521;28;20189;-79
2023/08/26 07:39:35;;;;;;;13.25;10.45;;;;;;;-141.97;40.95;47328.81;5030132;28;20183;-79
2023/08/26 07:42:00;;;;;;;12.15;10.52;;;;;;;-141.97;40.31;47338.41;5029304;28;20225;-77
2023/08/26 07:44:26;;;;;;;15.50;10.50;;;;;;;-141.97;39.59;47292.28;5029871;28;20162;-79
2023/08/26 07:46:51;;;;;;;12.82;10.48;;;;;;;-141.97;41.24;47294.22;5031657;28;20231;-79
2023/08/26 07:49:17;;;;;;;13.95;10.23;;;;;;;-141.97;41.17;47152.00;5034499;28;20173;-79
2023/08/26 07:51:42;;;;;;;15.85;10.27;;;;;;;-141.97;40.15;47305.75;5035844;28;20208;-79
2023/08/26 07:54:07;;;;;;;13.93;10.25;;;;;;;-141.97;39.86;47317.28;5030858;28;20230;-78
2023/08/26 07:56:34;;;;;;;14.75;10.25;;;;;;;-141.97;40.29;47294.22;5045272;28;20179;-78
2023/08/26 07:58:59;;;;;;;15.63;10.60;;;;;;;-141.97;39.29;47323.03;5031302;28;20200;-78
2023/08/26 08:01:24;;;;;;;11.43;10.20;;;;;;;-141.97;38.81;47303.81;5047832;28;20726;-79
2023/08/26 08:03:50;;;;;;;14.50;10.90;;;;;;;-141.97;38.16;47305.75;5025638;28;20327;-77
2023/08/26 08:06:15;;;;;;;12.32;10.25;;;;;;;-141.97;38.78;47299.97;5052463;28;20195;-78
2023/08/26 08:08:40;;;;;;;11.93;9.80;;;;;;;-141.97;38.70;47276.91;5049694;28;20200;-78
2023/08/26 08:11:06;;;;;;;13.60;10.77;;;;;;;-141.97;38.37;47307.66;5033805;28;20173;-77
2023/08/26 08:13:31;;;;;;;12.80;10.27;;;;;;;-141.97;37.94;47261.53;5033480;28;20160;-77
2023/08/26 08:15:57;;;;;;;13.43;9.90;;;;;;;-141.97;37.01;47284.59;5033408;28;20599;-77
2023/08/26 08:18:22;;;;;;;13.13;10.60;;;;;;;-141.97;36.61;47242.31;5033147;28;20154;-76
2023/08/26 08:20:47;;;;;;;12.57;10.13;;;;;;;-141.97;37.31;47265.38;5031386;28;20272;-76
2023/08/26 08:23:13;;;;;;;15.00;9.88;;;;;;;-141.97;37.06;47275.00;5032546;28;20185;-76
2023/08/26 08:25:39;;;;;;;16.30;10.50;;;;;;;-141.97;37.47;47253.84;5032769;28;20239;-76
2023/08/26 08:28:04;;;;;;;12.05;9.82;;;;;;;-141.97;37.39;47244.25;5033335;28;20200;-76
2023/08/26 08:30:30;;;;;;;10.20;9.20;;;;;;;-141.97;36.67;47242.31;5033338;28;20578;-76
2023/08/26 08:32:55;;;;;;;14.00;9.77;;;;;;;-141.97;36.70;47240.41;5033091;28;20170;-76
2023/08/26 08:35:21;;;;;;;11.75;9.95;;;;;;;-141.97;36.97;47255.78;5033151;28;20197;-75
2023/08/26 08:37:46;;;;;;;11.75;10.00;;;;;;;-141.97;36.78;47248.09;5033058;28;20295;-77
2023/08/26 08:40:12;;;;;;;11.32;9.88;;;;;;;-141.97;36.09;47173.13;5031865;28;20170;-76
2023/08/26 08:42:41;;;;;;;14.50;9.73;;;;;;;-141.97;36.06;47240.41;5033132;28;20213;-77
2023/08/26 08:45:08;;;;;;;13.90;10.10;;;;;;;-141.97;35.60;47248.09;5033364;28;20182;-75
2023/08/26 08:47:34;;;;;;;11.85;9.80;;;;;;;-141.97;34.94;47203.88;5032651;28;20540;-75
2023/08/26 08:50:00;;;;;;;13.73;9.70;;;;;;;-141.97;35.40;47361.47;5032770;28;20162;-75
2023/08/26 08:52:28;;;;;;;13.30;10.30;;;;;;;-141.97;36.49;47244.25;5032788;28;20170;-76
2023/08/26 08:54:53;;;;;;;13.40;10.43;;;;;;;-141.97;35.58;47211.56;5032678;28;20177;-75
2023/08/26 08:57:23;;;;;;;15.00;10.20;;;;;;;-141.97;34.54;47198.09;5032624;28;20162;-76
2023/08/26 08:59:49;;;;;;;14.63;10.65;;;;;;;-141.97;34.69;47238.47;5032612;28;20188;-76
2023/08/26 09:02:15;;;;;;;13.82;10.10;;;;;;;-141.97;34.30;47201.97;5035342;28;20642;-76
2023/08/26 09:04:42;;;;;;;12.15;9.05;;;;;;;-141.97;34.73;47246.16;5040243;28;20174;-75
2023/08/26 09:07:11;;;;;;;13.77;10.50;;;;;;;-141.97;35.02;47244.25;5036186;28;20190;-75
2023/08/26 09:09:37;;;;;;;16.88;10.20;;;;;;;-141.97;34.79;47232.72;5031897;28;20165;-75
2023/08/26 09:12:04;;;;;;;13.75;10.23;;;;;;;-141.97;34.10;47194.28;5031879;28;20162;-75
2023/08/26 09:14:29;;;;;;;10.23;9.13;;;;;;;-141.97;34.25;47138.53;5032730;28;20666;-76
2023/08/26 09:16:56;;;;;;;13.43;9.80;;;;;;;-141.97;33.76;47165.44;5032281;28;20169;-76
2023/08/26 09:19:21;;;;;;;11.63;9.60;;;;;;;-141.97;33.49;47280.75;5021657;28;20583;-75
2023/08/26 09:21:47;;;;;;;11.90;9.68;;;;;;;-141.97;34.10;47188.50;5038673;28;20189;-75
2023/08/26 09:24:14;;;;;;;11.15;10.00;;;;;;;-141.97;33.70;47211.56;5031628;28;20166;-76
2023/08/26 09:26:40;;;;;;;12.55;10.20;;;;;;;-141.97;33.49;47211.56;5032023;28;20158;-75
2023/08/26 09:29:16;;;;;;;13.10;10.00;;;;;;;-141.97;33.87;47082.81;5031743;28;20166;-75
2023/08/26 09:31:46;;;;;;;15.23;10.52;;;;;;;-141.97;33.16;47226.94;5010800;28;20190;-76
2023/08/26 09:34:11;;;;;;;16.40;10.63;;;;;;;-141.97;33.28;47382.63;5012442;28;20174;-76
2023/08/26 09:36:40;;;;;;;13.82;10.15;;;;;;;-141.97;33.45;47188.50;5017408;28;20547;-77
2023/08/26 09:39:13;;;;;;;13.38;10.77;;;;;;;-141.97;32.94;47211.56;5031251;28;20240;-77
2023/08/26 09:41:41;;;;;;;14.50;10.27;;;;;;;-141.97;33.50;47207.72;5031519;28;20217;-77
2023/08/26 09:44:09;;;;;;;15.30;11.00;;;;;;;-141.97;33.29;47194.28;5032459;28;20185;-76
2023/08/26 09:46:36;;;;;;;12.30;10.50;;;;;;;-141.97;33.28;47203.88;5031670;28;20241;-76
2023/08/26 09:49:02;;;;;;;15.38;10.95;;;;;;;-141.97;33.56;47200.03;5031465;28;20278;-75
2023/08/26 09:51:29;;;;;;;14.10;10.80;;;;;;;-141.97;33.58;47211.56;5031582;28;20165;-76
2023/08/26 09:53:56;;;;;;;13.25;10.30;;;;;;;-141.97;34.02;47221.19;5031600;28;20593;-76
2023/08/26 09:56:25;;;;;;;16.95;10.90;;;;;;;-141.97;33.41;47138.53;5033833;28;20245;-76
2023/08/26 09:58:53;;;;;;;13.32;10.73;;;;;;;-141.97;33.17;47201.97;5031521;28;20189;-76
2023/08/26 10:01:22;;;;;;;12.32;10.77;;;;;;;-141.97;33.29;47207.72;5031228;28;20169;-75
2023/08/26 10:03:58;;;;;;;14.07;10.30;;;;;;;-141.97;33.48;47215.41;5031477;28;20188;-74
2023/08/26 10:06:27;;;;;;;11.90;10.57;;;;;;;-141.97;32.93;47184.66;5031930;28;20162;-76
2023/08/26 10:08:58;;;;;;;13.57;10.52;;;;;;;-141.97;32.89;47203.88;5031205;28;20248;-75
2023/08/26 10:11:26;;;;;;;13.25;10.90;;;;;;;-141.97;33.17;47203.88;5030932;28;20252;-75
2023/08/26 10:13:56;;;;;;;11.90;10.70;;;;;;;-141.97;32.77;47148.16;5030892;28;20245;-79
2023/08/26 10:16:23;;;;;;;11.70;10.50;;;;;;;-141.97;32.94;47515.22;5031397;28;20158;-79
2023/08/26 10:18:54;;;;;;;13.63;10.73;;;;;;;-141.97;32.89;47186.59;5030083;28;20158;-79
2023/08/26 10:21:20;;;;;;;11.60;10.27;;;;;;;-141.97;33.34;47192.34;5031021;28;20240;-78
2023/08/26 10:23:49;;;;;;;14.45;10.93;;;;;;;-141.97;32.89;47176.97;5028087;28;20170;-80
2023/08/26 10:26:19;;;;;;;13.73;10.45;;;;;;;-141.97;32.73;47182.75;5046806;28;20177;-80
2023/08/26 10:28:47;;;;;;;12.25;10.77;;;;;;;-141.97;32.92;47186.59;5050979;28;20182;-80
2023/08/26 10:31:14;;;;;;;14.48;10.70;;;;;;;-141.97;32.92;47190.44;5036395;28;20203;-80
2023/08/26 10:34:00;;;;;;;13.27;10.52;;;;;;;-141.97;32.89;47203.88;5033780;28;20177;-82
2023/08/26 10:36:26;;;;;;;12.57;10.77;;;;;;;-141.97;32.44;47200.03;5030698;28;20181;-80
2023/08/26 10:38:56;;;;;;;13.55;10.45;;;;;;;-141.97;32.42;47171.22;5031256;28;20162;-81
2023/08/26 10:41:22;;;;;;;14.10;10.75;;;;;;;-141.97;32.50;47188.50;5030148;28;20602;-80
2023/08/26 10:44:01;;;;;;;14.00;10.63;;;;;;;-141.97;32.39;47186.59;5030581;28;20158;-80
2023/08/26 10:46:54;;;;;;;12.52;10.68;;;;;;;-141.97;32.85;47194.28;5029899;28;20531;-80
2023/08/26 10:49:27;;;;;;;12.38;10.85;;;;;;;-141.97;32.32;47215.41;5030072;28;20193;-80
2023/08/26 10:52:08;;;;;;;15.13;10.35;;;;;;;-141.97;32.89;47165.44;5030416;28;20244;-80
2023/08/26 10:54:35;;;;;;;12.23;10.60;;;;;;;-141.97;33.20;47196.19;5044684;28;20181;-81
2023/08/26 10:57:07;;;;;;;11.60;10.40;;;;;;;-141.97;32.92;47169.28;5051477;28;20521;-80
2023/08/26 10:59:37;;;;;;;15.07;10.73;;;;;;;-141.97;33.03;47180.81;5021998;28;20398;-80
2023/08/26 11:02:08;;;;;;;11.52;10.32;;;;;;;-141.97;32.76;47148.16;5035610;28;20181;-79
2023/08/26 11:04:35;;;;;;;11.35;10.25;;;;;;;-141.97;33.15;47203.88;5030165;28;20173;-81